5 hours ago
Runway Headwind Crosswind Length
3/21 1 kt 3,934 ft
METAR EBBL 201725Z AUTO VRB02KT 9999 BKN120/// 25/13 Q1007 BLU

METAR definition | Embed

METAR Kempen Airport

Kempen Airport is a midsized airport in Weert, The Netherlands. The airport has one runway: 3/21 (3,934 ft)

Kempen Airport didn't publish observations recently. Instead, we show you the report of Kleine Brogel Air Base which is 8 mi away. This report was made on June 20, 2021 7:25 pm, local time.

Airport observations

There is little or no wind from a variable direction.

Visibility is 6¼ mi or more.

There are broken clouds at an altitude of 12,000 ft. The ceiling, broken or more, is 12,000 ft.

The temperature and wind chill are 77 °F. The dew point is 55 °F, the relative humidity is 47%. The air pressure at sea level is 29.74 inHg (QNH).

Daylight period

Today the sun rises at 5:21 am and sets at 9:57 pm. This applies to Kempen Airport, the universal daylight period may be different. The difference between the local time and UTC is +2 hour. Daylight saving time is currently in progress.

Historical data

Donate

Will you help us to keep Metar-Taf.com running?
Your contribution helps further development of the site and to pay for the expenses.

No more ads

Are you donating $ 5 or more? Then we'll never show you ads again, as a token of our eternal gratitude!
Log in before you donate

Do you want the flying weather of Kempen Airport on your website? Read more   Free!